createdAt,value
2018-04-29T00:01:46.975Z,99.90
2018-04-29T00:04:14.545Z,99.90
2018-04-29T00:06:42.103Z,99.90
2018-04-29T00:09:09.626Z,99.90
2018-04-29T00:11:37.902Z,99.90
2018-04-29T00:14:06.178Z,99.90
2018-04-29T00:16:34.450Z,99.90
2018-04-29T00:19:02.715Z,99.90
2018-04-29T00:21:30.222Z,99.90
2018-04-29T00:23:57.722Z,99.90
2018-04-29T00:26:25.213Z,99.90
2018-04-29T00:28:52.705Z,99.90
2018-04-29T00:31:20.198Z,99.90
2018-04-29T00:33:47.793Z,99.90
2018-04-29T00:36:15.281Z,99.90
2018-04-29T00:38:42.833Z,99.90
2018-04-29T00:41:10.335Z,99.90
2018-04-29T00:43:38.626Z,99.90
2018-04-29T00:46:06.753Z,99.90
2018-04-29T00:48:34.245Z,99.90
2018-04-29T00:51:02.517Z,99.90
2018-04-29T00:53:30.791Z,99.90
2018-04-29T00:55:59.080Z,99.90
2018-04-29T00:58:26.585Z,99.90
2018-04-29T01:00:54.198Z,99.90
2018-04-29T01:03:21.702Z,99.90
2018-04-29T01:05:49.207Z,99.90
2018-04-29T01:08:16.699Z,99.90
2018-04-29T01:10:44.333Z,99.90
2018-04-29T01:13:11.831Z,99.90
2018-04-29T01:15:39.323Z,99.90
2018-04-29T01:18:07.729Z,99.90
2018-04-29T01:20:35.225Z,99.90
2018-04-29T01:23:02.733Z,99.90
2018-04-29T01:25:30.275Z,99.90
2018-04-29T01:27:58.654Z,99.90
2018-04-29T01:30:26.920Z,99.90
2018-04-29T01:32:55.188Z,99.90
2018-04-29T01:35:23.456Z,99.90
2018-04-29T01:37:51.760Z,99.90
2018-04-29T01:40:19.315Z,99.90
2018-04-29T01:42:46.875Z,99.90
2018-04-29T01:45:14.393Z,99.90
2018-04-29T01:47:41.973Z,99.90
2018-04-29T01:50:10.248Z,99.90
2018-04-29T01:52:38.640Z,99.90
2018-04-29T01:55:06.129Z,99.90
2018-04-29T01:57:33.619Z,99.90
2018-04-29T02:00:01.137Z,99.90
2018-04-29T02:02:28.623Z,99.90
2018-04-29T02:04:56.210Z,99.90
2018-04-29T02:07:24.500Z,99.90
2018-04-29T02:09:52.050Z,99.90
2018-04-29T02:12:20.303Z,99.90
2018-04-29T02:14:47.816Z,99.90
2018-04-29T02:17:15.349Z,99.90
2018-04-29T02:19:42.844Z,99.90
2018-04-29T02:22:10.352Z,99.90
2018-04-29T02:24:38.616Z,99.90
2018-04-29T02:27:06.886Z,99.90
2018-04-29T02:29:35.184Z,99.90
2018-04-29T02:32:02.673Z,99.90
2018-04-29T02:34:30.173Z,99.90
2018-04-29T02:36:58.493Z,99.90
2018-04-29T02:39:26.045Z,99.90
2018-04-29T02:41:53.526Z,99.90
2018-04-29T02:44:21.038Z,99.90
2018-04-29T02:46:49.333Z,99.90
2018-04-29T02:49:17.016Z,99.90
2018-04-29T02:51:44.531Z,99.90
2018-04-29T02:54:12.018Z,99.90
2018-04-29T02:56:39.514Z,99.90
2018-04-29T02:59:07.010Z,99.90
2018-04-29T03:01:34.516Z,99.90
2018-04-29T03:04:02.015Z,99.90
2018-04-29T03:06:29.575Z,99.90
2018-04-29T03:08:57.071Z,99.90
2018-04-29T03:11:24.576Z,99.90
2018-04-29T03:13:52.845Z,99.90
2018-04-29T03:16:21.102Z,99.90
2018-04-29T03:18:48.677Z,99.90
2018-04-29T03:21:16.936Z,99.90
2018-04-29T03:23:44.436Z,99.90
2018-04-29T03:26:11.933Z,99.90
2018-04-29T03:28:39.439Z,99.90
2018-04-29T03:31:06.942Z,99.90
2018-04-29T03:33:34.425Z,99.90
2018-04-29T03:36:01.932Z,99.90
2018-04-29T03:38:29.450Z,99.90
2018-04-29T03:40:57.730Z,99.90
2018-04-29T03:43:26.110Z,99.90
2018-04-29T03:45:54.387Z,99.90
2018-04-29T03:48:21.895Z,99.90
2018-04-29T03:50:49.381Z,99.90
2018-04-29T03:53:17.642Z,99.90
2018-04-29T03:55:45.125Z,99.90
2018-04-29T03:58:25.410Z,99.90
2018-04-29T04:01:04.652Z,99.90
2018-04-29T04:03:44.253Z,99.90
2018-04-29T04:06:12.498Z,99.90
2018-04-29T04:08:39.996Z,99.90
2018-04-29T04:11:07.507Z,99.90
2018-04-29T04:13:36.493Z,99.90
2018-04-29T04:16:04.000Z,99.90
2018-04-29T04:18:31.502Z,99.90
2018-04-29T04:20:59.019Z,99.90
2018-04-29T04:23:26.514Z,99.90
2018-04-29T04:25:54.004Z,99.90
2018-04-29T04:28:22.269Z,99.90
2018-04-29T04:30:50.544Z,99.90
2018-04-29T04:33:18.842Z,99.90
2018-04-29T04:35:46.404Z,99.90
2018-04-29T04:38:13.922Z,99.90
2018-04-29T04:40:41.516Z,99.90
2018-04-29T04:43:09.076Z,99.90
2018-04-29T04:45:36.583Z,99.90
2018-04-29T04:48:04.093Z,99.90
2018-04-29T04:50:31.646Z,99.90
2018-04-29T04:52:59.147Z,99.90
2018-04-29T04:55:26.653Z,99.90
2018-04-29T04:57:54.923Z,99.90
2018-04-29T05:00:23.181Z,99.90
2018-04-29T05:02:50.687Z,99.90
2018-04-29T05:05:18.223Z,99.90
2018-04-29T05:07:45.775Z,99.90
2018-04-29T05:10:13.376Z,99.90
2018-04-29T05:12:40.871Z,99.90
2018-04-29T05:15:09.141Z,99.90
2018-04-29T05:17:36.630Z,99.90
2018-04-29T05:20:04.126Z,99.90
2018-04-29T05:22:31.661Z,99.90
2018-04-29T05:24:59.213Z,99.90
2018-04-29T05:27:26.736Z,99.90
2018-04-29T05:29:55.004Z,99.90
2018-04-29T05:32:23.265Z,99.90
2018-04-29T05:34:50.749Z,99.90
2018-04-29T05:37:19.020Z,99.90
2018-04-29T05:39:47.305Z,99.90
2018-04-29T05:42:14.813Z,99.90
2018-04-29T05:44:42.331Z,99.90
2018-04-29T05:47:09.848Z,99.90
2018-04-29T05:49:38.113Z,99.90
2018-04-29T05:52:05.620Z,99.90
2018-04-29T05:54:33.116Z,99.90
2018-04-29T05:57:00.606Z,99.90
2018-04-29T05:59:28.853Z,99.90
2018-04-29T06:01:56.363Z,99.90
2018-04-29T06:04:23.907Z,99.90
2018-04-29T06:06:51.471Z,99.90
2018-04-29T06:09:19.035Z,99.90
2018-04-29T06:11:46.588Z,99.90
2018-04-29T06:14:14.088Z,99.90
2018-04-29T06:16:41.570Z,99.90
2018-04-29T06:19:09.166Z,99.90
2018-04-29T06:21:36.665Z,99.90
2018-04-29T06:24:04.272Z,99.90
2018-04-29T06:26:31.789Z,99.90
2018-04-29T06:28:59.285Z,99.20
2018-04-29T06:31:26.799Z,98.70
2018-04-29T06:33:54.292Z,97.90
2018-04-29T06:36:22.666Z,96.20
2018-04-29T06:38:50.943Z,94.90
2018-04-29T06:41:19.194Z,95.60
2018-04-29T06:43:46.777Z,95.60
2018-04-29T06:46:14.305Z,95.50
2018-04-29T06:48:41.824Z,96.10
2018-04-29T06:51:09.347Z,96.20
2018-04-29T06:53:37.598Z,95.90
2018-04-29T06:56:05.087Z,95.80
2018-04-29T06:58:32.608Z,95.80
2018-04-29T07:01:00.099Z,95.70
2018-04-29T07:03:27.590Z,95.60
2018-04-29T07:05:55.088Z,95.30
2018-04-29T07:08:23.359Z,93.40
2018-04-29T07:10:51.628Z,93.80
2018-04-29T07:13:19.217Z,93.70
2018-04-29T07:15:46.777Z,94.10
2018-04-29T07:18:14.342Z,94.10
2018-04-29T07:20:41.837Z,94.50
2018-04-29T07:23:09.322Z,94.90
2018-04-29T07:25:37.577Z,95.50
2018-04-29T07:28:05.066Z,95.50
2018-04-29T07:30:33.336Z,94.20
2018-04-29T07:33:01.610Z,94.50
2018-04-29T07:35:29.870Z,94.30
2018-04-29T07:37:57.365Z,94.30
2018-04-29T07:40:24.870Z,93.70
2018-04-29T07:42:52.363Z,93.30
2018-04-29T07:45:19.873Z,93.80
2018-04-29T07:47:47.485Z,94.80
2018-04-29T07:50:14.965Z,93.70
2018-04-29T07:52:42.504Z,93.80
2018-04-29T07:55:10.732Z,94.10
2018-04-29T07:57:38.343Z,94.10
2018-04-29T08:00:05.841Z,93.80
2018-04-29T08:02:33.433Z,93.60
2018-04-29T08:05:01.715Z,93.70
2018-04-29T08:07:29.277Z,93.60
2018-04-29T08:10:10.237Z,93.10
2018-04-29T08:12:38.498Z,93.80
2018-04-29T08:15:06.759Z,94.70
2018-04-29T08:17:34.292Z,94.60
2018-04-29T08:20:01.824Z,94.90
2018-04-29T08:22:29.473Z,94.10
2018-04-29T08:24:57.835Z,94.30
2018-04-29T08:27:26.105Z,93.60
2018-04-29T08:29:54.358Z,93.60
2018-04-29T08:32:21.858Z,93.60
2018-04-29T08:34:49.338Z,93.90
2018-04-29T08:37:16.860Z,94.00
2018-04-29T08:39:44.360Z,94.50
2018-04-29T08:42:11.892Z,93.60
2018-04-29T08:44:39.386Z,93.30
2018-04-29T08:47:06.895Z,92.40
2018-04-29T08:49:34.381Z,92.90
2018-04-29T08:52:01.903Z,92.50
2018-04-29T08:54:29.398Z,92.30
2018-04-29T08:56:57.019Z,92.60
2018-04-29T08:59:24.574Z,91.60
2018-04-29T09:01:52.042Z,91.20
2018-04-29T09:04:19.538Z,91.60
2018-04-29T09:06:47.146Z,91.50
2018-04-29T09:09:14.670Z,91.60
2018-04-29T09:11:42.163Z,91.50
2018-04-29T09:14:09.681Z,91.90
2018-04-29T09:16:37.199Z,91.70
2018-04-29T09:19:04.720Z,91.70
2018-04-29T09:21:32.975Z,91.60
2018-04-29T09:24:00.492Z,91.60
2018-04-29T09:26:28.011Z,91.70
2018-04-29T09:28:55.498Z,92.10
2018-04-29T09:31:23.003Z,91.80
2018-04-29T09:33:50.512Z,90.80
2018-04-29T09:36:18.063Z,91.10
2018-04-29T09:38:45.600Z,91.00
2018-04-29T09:41:13.159Z,90.00
2018-04-29T09:43:40.685Z,89.50
2018-04-29T09:46:08.186Z,89.10
2018-04-29T09:48:35.776Z,89.80
2018-04-29T09:51:03.225Z,87.20
2018-04-29T09:53:30.730Z,88.50
2018-04-29T09:55:58.991Z,87.30
2018-04-29T09:58:27.255Z,88.40
2018-04-29T10:00:57.679Z,88.40
2018-04-29T10:03:25.142Z,86.70
2018-04-29T10:05:53.413Z,86.20
2018-04-29T10:08:20.908Z,86.20
2018-04-29T10:10:48.456Z,87.60
2018-04-29T10:13:16.015Z,86.80
2018-04-29T10:15:43.532Z,87.90
2018-04-29T10:18:11.029Z,88.30
2018-04-29T10:20:38.605Z,88.60
2018-04-29T10:23:06.105Z,87.70
2018-04-29T10:25:33.587Z,88.30
2018-04-29T10:28:01.866Z,90.20
2018-04-29T10:30:30.122Z,89.00
2018-04-29T10:32:57.622Z,89.00
2018-04-29T10:35:25.177Z,90.00
2018-04-29T10:37:52.708Z,91.10
2018-04-29T10:40:20.967Z,90.20
2018-04-29T10:42:49.210Z,88.00
2018-04-29T10:45:16.719Z,88.00
2018-04-29T10:47:44.210Z,87.10
2018-04-29T10:50:11.738Z,87.80
2018-04-29T10:52:39.294Z,88.30
2018-04-29T10:55:07.562Z,88.20
2018-04-29T10:57:35.812Z,85.50
2018-04-29T11:00:04.119Z,86.30
2018-04-29T11:02:31.630Z,86.30
2018-04-29T11:04:59.128Z,85.60
2018-04-29T11:07:26.654Z,87.60
2018-04-29T11:09:54.928Z,85.90
2018-04-29T11:12:22.525Z,85.90
2018-04-29T11:14:50.019Z,86.00
2018-04-29T11:17:17.515Z,85.60
2018-04-29T11:19:45.828Z,87.20
2018-04-29T11:22:13.426Z,87.20
2018-04-29T11:24:41.624Z,85.50
2018-04-29T11:27:09.916Z,84.20
2018-04-29T11:29:37.423Z,84.20
2018-04-29T11:32:04.907Z,84.50
2018-04-29T11:34:33.173Z,84.50
2018-04-29T11:37:00.682Z,84.30
2018-04-29T11:39:28.233Z,83.90
2018-04-29T11:42:06.996Z,81.60
2018-04-29T11:44:34.575Z,80.10
2018-04-29T11:47:02.834Z,77.30
2018-04-29T11:49:30.333Z,77.20
2018-04-29T11:51:57.869Z,78.90
2018-04-29T11:54:26.113Z,79.60
2018-04-29T11:56:53.611Z,79.60
2018-04-29T11:59:21.128Z,80.80
2018-04-29T12:01:48.804Z,80.80
2018-04-29T12:04:16.309Z,78.20
2018-04-29T12:06:43.831Z,79.70
2018-04-29T12:09:12.082Z,79.80
2018-04-29T12:11:39.571Z,79.70
2018-04-29T12:14:07.122Z,74.40
2018-04-29T12:16:35.399Z,72.70
2018-04-29T12:19:03.748Z,73.90
2018-04-29T12:21:31.241Z,73.80
2018-04-29T12:23:58.799Z,72.90
2018-04-29T12:26:26.285Z,72.80
2018-04-29T12:28:53.901Z,71.70
2018-04-29T12:31:22.144Z,71.20
2018-04-29T12:33:49.630Z,71.30
2018-04-29T12:36:17.906Z,69.40
2018-04-29T12:38:46.179Z,69.70
2018-04-29T12:41:14.484Z,70.10
2018-04-29T12:43:41.987Z,70.20
2018-04-29T12:46:09.570Z,71.50
2018-04-29T12:48:37.860Z,69.50
2018-04-29T12:51:05.411Z,69.40
2018-04-29T12:53:32.915Z,69.80
2018-04-29T12:56:00.441Z,70.80
2018-04-29T12:58:27.978Z,66.30
2018-04-29T13:00:56.269Z,67.30
2018-04-29T13:03:23.766Z,67.30
2018-04-29T13:05:51.367Z,68.10
2018-04-29T13:08:19.614Z,70.90
2018-04-29T13:10:47.202Z,70.80
2018-04-29T13:13:14.690Z,65.20
2018-04-29T13:15:42.198Z,65.20
2018-04-29T13:18:10.467Z,65.40
2018-04-29T13:20:38.741Z,64.90
2018-04-29T13:23:06.221Z,64.80
2018-04-29T13:25:33.783Z,66.10
2018-04-29T13:30:33.299Z,64.40
2018-04-29T13:33:00.793Z,64.00
2018-04-29T13:35:28.289Z,65.80
2018-04-29T13:37:56.564Z,65.60
2018-04-29T13:40:24.824Z,66.10
2018-04-29T13:42:52.414Z,66.00
2018-04-29T13:45:20.662Z,62.40
2018-04-29T13:47:48.164Z,62.40
2018-04-29T13:50:15.663Z,62.30
2018-04-29T13:52:43.160Z,63.20
2018-04-29T13:55:10.657Z,65.50
2018-04-29T13:57:38.204Z,64.30
2018-04-29T14:00:05.722Z,65.10
2018-04-29T14:02:33.982Z,63.30
2018-04-29T14:05:02.252Z,63.40
2018-04-29T14:07:29.746Z,63.40
2018-04-29T14:09:57.265Z,64.10
2018-04-29T14:12:24.840Z,66.00
2018-04-29T14:14:53.105Z,64.40
2018-04-29T14:17:21.391Z,65.70
2018-04-29T14:19:49.719Z,67.30
2018-04-29T14:22:17.973Z,64.30
2018-04-29T14:24:45.523Z,64.20
2018-04-29T14:27:13.013Z,63.60
2018-04-29T14:29:40.628Z,62.30
2018-04-29T14:32:08.176Z,62.80
2018-04-29T14:34:35.738Z,61.00
2018-04-29T14:37:03.311Z,61.90
2018-04-29T14:39:30.824Z,62.20
2018-04-29T14:41:58.322Z,61.30
2018-04-29T14:44:25.860Z,62.70
2018-04-29T14:46:53.373Z,61.60
2018-04-29T14:49:21.010Z,60.10
2018-04-29T14:51:48.497Z,59.90
2018-04-29T14:54:16.772Z,60.00
2018-04-29T14:56:44.262Z,60.00
2018-04-29T14:59:12.563Z,60.00
2018-04-29T15:01:40.053Z,59.90
2018-04-29T15:04:07.556Z,60.00
2018-04-29T15:06:35.111Z,59.50
2018-04-29T15:09:02.619Z,60.00
2018-04-29T15:11:30.142Z,60.30
2018-04-29T15:13:57.684Z,59.80
2018-04-29T15:16:25.193Z,59.40
2018-04-29T15:18:59.767Z,60.80
2018-04-29T15:21:27.269Z,60.40
2018-04-29T15:23:54.862Z,60.00
2018-04-29T15:26:23.141Z,60.00
2018-04-29T15:28:51.423Z,60.00
2018-04-29T15:31:19.005Z,60.00
2018-04-29T15:33:46.502Z,60.50
2018-04-29T15:36:14.004Z,60.50
2018-04-29T15:38:41.575Z,60.90
2018-04-29T15:41:09.090Z,60.50
2018-04-29T15:43:37.366Z,59.80
2018-04-29T15:46:05.664Z,60.40
2018-04-29T15:48:33.206Z,60.40
2018-04-29T15:51:01.469Z,52.50
2018-04-29T15:53:29.765Z,51.30
2018-04-29T15:55:58.025Z,49.80
2018-04-29T15:58:26.319Z,49.90
2018-04-29T16:00:53.818Z,49.80
2018-04-29T16:03:21.373Z,49.00
2018-04-29T16:05:48.912Z,48.50
2018-04-29T16:08:16.408Z,49.50
2018-04-29T16:10:44.012Z,49.70
2018-04-29T16:13:11.520Z,49.70
2018-04-29T16:15:39.029Z,49.30
2018-04-29T16:18:06.562Z,49.40
2018-04-29T16:20:34.973Z,49.10
2018-04-29T16:23:02.497Z,49.00
2018-04-29T16:25:41.860Z,49.30
2018-04-29T16:28:09.345Z,49.40
2018-04-29T16:30:38.547Z,49.00
2018-04-29T16:33:06.042Z,49.00
2018-04-29T16:35:33.590Z,49.20
2018-04-29T16:38:01.945Z,49.50
2018-04-29T16:40:29.432Z,49.50
2018-04-29T16:42:56.936Z,49.60
2018-04-29T16:45:24.557Z,49.90
2018-04-29T16:47:52.136Z,49.60
2018-04-29T16:50:20.330Z,50.30
2018-04-29T16:52:47.838Z,50.30
2018-04-29T16:55:15.511Z,49.30
2018-04-29T16:57:42.997Z,49.30
2018-04-29T17:00:10.632Z,49.30
2018-04-29T17:02:38.119Z,49.30
2018-04-29T17:05:05.821Z,49.30
2018-04-29T17:07:33.342Z,49.40
2018-04-29T17:10:00.840Z,49.40
2018-04-29T17:12:28.317Z,49.60
2018-04-29T17:14:55.816Z,49.90
2018-04-29T17:17:23.320Z,49.00
2018-04-29T17:19:50.816Z,49.20
2018-04-29T17:22:18.319Z,49.20
2018-04-29T17:24:45.801Z,49.40
2018-04-29T17:27:13.337Z,49.70
2018-04-29T17:29:40.833Z,49.90
2018-04-29T17:32:08.442Z,48.70
2018-04-29T17:34:36.019Z,50.40
2018-04-29T17:37:03.550Z,49.60
2018-04-29T17:39:31.829Z,50.00
2018-04-29T17:42:00.095Z,50.00
2018-04-29T17:44:28.357Z,50.30
2018-04-29T17:46:55.861Z,50.30
2018-04-29T17:49:23.361Z,50.50
2018-04-29T17:51:50.969Z,50.80
2018-04-29T17:54:18.554Z,51.00
2018-04-29T17:56:46.055Z,51.30
2018-04-29T17:59:14.443Z,51.70
2018-04-29T18:01:41.965Z,51.70
2018-04-29T18:04:10.970Z,51.70
2018-04-29T18:06:39.222Z,51.70
2018-04-29T18:09:06.718Z,51.60
2018-04-29T18:11:34.207Z,51.50
2018-04-29T18:14:01.708Z,51.40
2018-04-29T18:16:29.212Z,51.30
2018-04-29T18:18:56.720Z,51.40
2018-04-29T18:21:24.228Z,51.40
2018-04-29T18:23:51.760Z,51.80
2018-04-29T18:26:20.010Z,51.90
2018-04-29T18:28:48.257Z,52.30
2018-04-29T18:31:15.854Z,52.30
2018-04-29T18:33:44.103Z,52.30
2018-04-29T18:36:11.665Z,52.30
2018-04-29T18:38:39.241Z,52.50
2018-04-29T18:41:07.526Z,52.50
2018-04-29T18:43:35.016Z,52.50
2018-04-29T18:46:02.543Z,52.80
2018-04-29T18:48:30.131Z,53.20
2018-04-29T18:50:57.797Z,52.80
2018-04-29T18:53:25.935Z,53.00
2018-04-29T18:55:53.492Z,52.90
2018-04-29T18:58:21.003Z,53.10
2018-04-29T19:00:48.507Z,53.00
2018-04-29T19:03:16.017Z,53.20
2018-04-29T19:05:46.457Z,53.20
2018-04-29T19:08:14.057Z,53.40
2018-04-29T19:10:41.588Z,53.60
2018-04-29T19:13:09.866Z,53.70
2018-04-29T19:15:38.284Z,53.70
2018-04-29T19:18:05.786Z,53.70
2018-04-29T19:20:34.071Z,53.90
2018-04-29T19:23:02.359Z,54.10
2018-04-29T19:25:29.911Z,54.00
2018-04-29T19:27:58.262Z,54.50
2018-04-29T19:30:26.549Z,54.70
2018-04-29T19:32:54.860Z,54.50
2018-04-29T19:35:22.385Z,54.40
2018-04-29T19:37:50.633Z,54.60
2018-04-29T19:40:18.137Z,54.50
2018-04-29T19:42:46.232Z,54.70
2018-04-29T19:45:13.719Z,54.70
2018-04-29T19:47:41.227Z,55.70
2018-04-29T19:50:08.759Z,55.00
2018-04-29T19:52:37.017Z,55.50
2018-04-29T19:55:04.521Z,55.40
2018-04-29T19:57:32.060Z,55.70
2018-04-29T19:59:59.612Z,55.50
2018-04-29T20:02:27.084Z,55.80
2018-04-29T20:04:54.692Z,55.90
2018-04-29T20:07:22.297Z,55.90
2018-04-29T20:09:49.796Z,56.10
2018-04-29T20:12:17.304Z,56.20
2018-04-29T20:14:44.786Z,56.30
2018-04-29T20:17:12.325Z,56.30
2018-04-29T20:19:39.876Z,56.50
2018-04-29T20:22:07.378Z,56.60
2018-04-29T20:24:34.858Z,56.80
2018-04-29T20:27:03.127Z,57.00
2018-04-29T20:29:30.641Z,57.00
2018-04-29T20:31:58.153Z,56.90
2018-04-29T20:34:26.446Z,57.20
2018-04-29T20:36:53.985Z,57.10
2018-04-29T20:39:22.246Z,57.80
2018-04-29T20:41:49.744Z,57.70
2018-04-29T20:44:17.282Z,58.10
2018-04-29T20:46:45.549Z,58.50
2018-04-29T20:49:13.811Z,58.60
2018-04-29T20:51:41.319Z,58.60
2018-04-29T20:54:08.827Z,58.80
2018-04-29T20:56:37.144Z,58.90
2018-04-29T20:59:04.642Z,58.90
2018-04-29T21:01:32.177Z,59.00
2018-04-29T21:03:59.685Z,58.80
2018-04-29T21:06:27.943Z,59.00
2018-04-29T21:08:56.234Z,59.30
2018-04-29T21:11:24.505Z,59.70
2018-04-29T21:13:52.772Z,59.60
2018-04-29T21:16:21.063Z,59.50
2018-04-29T21:18:48.546Z,59.50
2018-04-29T21:21:16.073Z,59.80
2018-04-29T21:23:44.344Z,60.00
2018-04-29T21:26:12.604Z,60.20
2018-04-29T21:28:40.114Z,60.20
2018-04-29T21:31:07.615Z,60.50
2018-04-29T21:33:35.113Z,61.00
2018-04-29T21:36:02.594Z,61.00
2018-04-29T21:38:30.100Z,61.30
2018-04-29T21:40:57.669Z,61.50
2018-04-29T21:43:25.219Z,62.40
2018-04-29T21:45:53.589Z,60.90
2018-04-29T21:48:21.842Z,60.90
2018-04-29T21:50:49.338Z,60.80
2018-04-29T21:53:16.823Z,61.00
2018-04-29T21:55:44.299Z,60.40
2018-04-29T21:58:11.896Z,60.30
2018-04-29T22:00:40.158Z,60.50
2018-04-29T22:03:08.446Z,60.50
2018-04-29T22:05:36.830Z,60.50
2018-04-29T22:08:04.385Z,60.40
2018-04-29T22:10:31.901Z,60.40
2018-04-29T22:13:02.289Z,60.50
2018-04-29T22:15:29.780Z,60.70
2018-04-29T22:17:57.387Z,60.30
2018-04-29T22:20:24.901Z,60.20
2018-04-29T22:22:52.392Z,60.80
2018-04-29T22:25:20.663Z,60.50
2018-04-29T22:27:49.044Z,60.50
2018-04-29T22:30:16.534Z,60.50
2018-04-29T22:32:44.040Z,60.80
2018-04-29T22:35:12.292Z,60.60
2018-04-29T22:37:39.790Z,60.60
2018-04-29T22:40:07.366Z,60.90
2018-04-29T22:42:34.885Z,60.70
2018-04-29T22:45:03.148Z,61.20
2018-04-29T22:47:30.726Z,61.10
2018-04-29T22:49:58.994Z,60.70
2018-04-29T22:52:27.268Z,61.10
2018-04-29T22:54:55.538Z,60.80
2018-04-29T22:57:23.835Z,60.80
2018-04-29T22:59:51.324Z,60.80
2018-04-29T23:02:18.836Z,60.60
2018-04-29T23:04:47.096Z,60.20
2018-04-29T23:07:14.606Z,60.10
2018-04-29T23:09:42.135Z,59.70
2018-04-29T23:12:09.688Z,59.60
2018-04-29T23:14:37.247Z,59.50
2018-04-29T23:17:04.729Z,59.40
2018-04-29T23:19:32.230Z,59.40
2018-04-29T23:21:59.818Z,60.30
2018-04-29T23:24:28.077Z,59.80
2018-04-29T23:26:56.325Z,59.80
2018-04-29T23:29:23.843Z,59.80
2018-04-29T23:31:51.345Z,59.80
2018-04-29T23:34:18.835Z,60.20
2018-04-29T23:36:47.211Z,62.20
2018-04-29T23:39:15.483Z,61.30
2018-04-29T23:41:43.759Z,60.30
2018-04-29T23:44:12.014Z,60.80
2018-04-29T23:46:39.536Z,60.70
2018-04-29T23:49:07.055Z,60.80
2018-04-29T23:51:34.537Z,61.60
2018-04-29T23:54:02.051Z,61.10
2018-04-29T23:56:30.316Z,63.20
2018-04-29T23:58:57.801Z,63.10
